sensor_id;sensor_type;location;lat;lon;timestamp;P1;durP1;ratioP1;P2;durP2;ratioP2
12838;SDS011;6486;51.034;5.262;2023-04-03T00:01:33;1.90;;;1.23;;
12838;SDS011;6486;51.034;5.262;2023-04-03T00:04:00;1.27;;;1.10;;
12838;SDS011;6486;51.034;5.262;2023-04-03T00:06:25;2.20;;;1.93;;
12838;SDS011;6486;51.034;5.262;2023-04-03T00:08:51;2.13;;;1.67;;
12838;SDS011;6486;51.034;5.262;2023-04-03T00:11:17;1.37;;;0.80;;
12838;SDS011;6486;51.034;5.262;2023-04-03T00:13:44;1.57;;;1.10;;
12838;SDS011;6486;51.034;5.262;2023-04-03T00:16:10;1.47;;;1.37;;
12838;SDS011;6486;51.034;5.262;2023-04-03T00:18:37;1.00;;;0.90;;
12838;SDS011;6486;51.034;5.262;2023-04-03T00:21:03;1.73;;;1.63;;
12838;SDS011;6486;51.034;5.262;2023-04-03T00:23:29;1.30;;;1.20;;
12838;SDS011;6486;51.034;5.262;2023-04-03T00:25:55;2.40;;;1.80;;
12838;SDS011;6486;51.034;5.262;2023-04-03T00:28:20;2.87;;;1.37;;
12838;SDS011;6486;51.034;5.262;2023-04-03T00:30:48;1.20;;;0.90;;
12838;SDS011;6486;51.034;5.262;2023-04-03T00:33:14;1.63;;;1.47;;
12838;SDS011;6486;51.034;5.262;2023-04-03T00:35:40;1.33;;;1.23;;
12838;SDS011;6486;51.034;5.262;2023-04-03T00:38:06;1.30;;;1.20;;
12838;SDS011;6486;51.034;5.262;2023-04-03T00:40:36;1.30;;;1.17;;
12838;SDS011;6486;51.034;5.262;2023-04-03T00:43:08;0.97;;;0.97;;
12838;SDS011;6486;51.034;5.262;2023-04-03T00:45:44;0.90;;;0.80;;
12838;SDS011;6486;51.034;5.262;2023-04-03T00:48:34;0.67;;;0.67;;
12838;SDS011;6486;51.034;5.262;2023-04-03T00:51:01;1.80;;;1.43;;
12838;SDS011;6486;51.034;5.262;2023-04-03T00:53:31;1.70;;;0.97;;
12838;SDS011;6486;51.034;5.262;2023-04-03T00:56:07;1.27;;;0.97;;
12838;SDS011;6486;51.034;5.262;2023-04-03T00:58:46;1.40;;;1.03;;
12838;SDS011;6486;51.034;5.262;2023-04-03T01:01:18;1.30;;;1.20;;
12838;SDS011;6486;51.034;5.262;2023-04-03T01:03:47;2.83;;;1.43;;
12838;SDS011;6486;51.034;5.262;2023-04-03T01:06:14;2.87;;;2.07;;
12838;SDS011;6486;51.034;5.262;2023-04-03T01:08:41;1.50;;;1.40;;
12838;SDS011;6486;51.034;5.262;2023-04-03T01:11:08;1.40;;;1.30;;
12838;SDS011;6486;51.034;5.262;2023-04-03T01:13:33;1.30;;;1.00;;
12838;SDS011;6486;51.034;5.262;2023-04-03T01:16:03;1.70;;;1.27;;
12838;SDS011;6486;51.034;5.262;2023-04-03T01:18:30;1.57;;;1.47;;
12838;SDS011;6486;51.034;5.262;2023-04-03T01:26:12;1.07;;;0.77;;
12838;SDS011;6486;51.034;5.262;2023-04-03T01:28:38;3.07;;;1.37;;
12838;SDS011;6486;51.034;5.262;2023-04-03T01:33:44;2.37;;;1.13;;
12838;SDS011;6486;51.034;5.262;2023-04-03T01:36:13;1.17;;;1.10;;
12838;SDS011;6486;51.034;5.262;2023-04-03T01:38:44;2.90;;;1.50;;
12838;SDS011;6486;51.034;5.262;2023-04-03T01:41:10;1.43;;;1.33;;
12838;SDS011;6486;51.034;5.262;2023-04-03T01:43:35;2.63;;;1.23;;
12838;SDS011;6486;51.034;5.262;2023-04-03T01:46:01;3.03;;;1.37;;
12838;SDS011;6486;51.034;5.262;2023-04-03T01:48:26;2.10;;;1.43;;
12838;SDS011;6486;51.034;5.262;2023-04-03T01:50:53;1.37;;;1.27;;
12838;SDS011;6486;51.034;5.262;2023-04-03T01:53:19;1.80;;;1.37;;
12838;SDS011;6486;51.034;5.262;2023-04-03T01:55:44;0.50;;;0.50;;
12838;SDS011;6486;51.034;5.262;2023-04-03T01:58:10;0.90;;;0.90;;
12838;SDS011;6486;51.034;5.262;2023-04-03T02:00:35;2.53;;;1.83;;
12838;SDS011;6486;51.034;5.262;2023-04-03T02:03:02;7.97;;;1.40;;
12838;SDS011;6486;51.034;5.262;2023-04-03T02:05:28;1.53;;;1.43;;
12838;SDS011;6486;51.034;5.262;2023-04-03T02:07:53;1.30;;;1.20;;
12838;SDS011;6486;51.034;5.262;2023-04-03T02:10:19;1.17;;;1.07;;
12838;SDS011;6486;51.034;5.262;2023-04-03T02:12:45;5.37;;;1.40;;
12838;SDS011;6486;51.034;5.262;2023-04-03T02:15:11;2.10;;;0.83;;
12838;SDS011;6486;51.034;5.262;2023-04-03T02:17:36;2.90;;;1.40;;
12838;SDS011;6486;51.034;5.262;2023-04-03T02:20:02;1.00;;;0.90;;
12838;SDS011;6486;51.034;5.262;2023-04-03T02:22:28;1.00;;;0.90;;
12838;SDS011;6486;51.034;5.262;2023-04-03T02:24:54;1.43;;;1.33;;
12838;SDS011;6486;51.034;5.262;2023-04-03T02:27:20;1.90;;;1.10;;
12838;SDS011;6486;51.034;5.262;2023-04-03T02:29:46;1.17;;;1.07;;
12838;SDS011;6486;51.034;5.262;2023-04-03T02:32:11;1.60;;;1.50;;
12838;SDS011;6486;51.034;5.262;2023-04-03T02:34:37;1.63;;;1.53;;
12838;SDS011;6486;51.034;5.262;2023-04-03T02:37:02;2.23;;;1.17;;
12838;SDS011;6486;51.034;5.262;2023-04-03T02:39:28;5.40;;;1.70;;
12838;SDS011;6486;51.034;5.262;2023-04-03T02:41:54;1.50;;;1.03;;
12838;SDS011;6486;51.034;5.262;2023-04-03T02:44:19;9.80;;;2.20;;
12838;SDS011;6486;51.034;5.262;2023-04-03T02:46:45;2.00;;;1.57;;
12838;SDS011;6486;51.034;5.262;2023-04-03T02:49:11;1.60;;;1.43;;
12838;SDS011;6486;51.034;5.262;2023-04-03T02:51:37;1.40;;;1.00;;
12838;SDS011;6486;51.034;5.262;2023-04-03T02:54:02;1.37;;;1.20;;
12838;SDS011;6486;51.034;5.262;2023-04-03T02:56:28;1.30;;;0.90;;
12838;SDS011;6486;51.034;5.262;2023-04-03T02:58:53;1.80;;;1.47;;
12838;SDS011;6486;51.034;5.262;2023-04-03T03:01:20;1.10;;;0.73;;
12838;SDS011;6486;51.034;5.262;2023-04-03T03:03:45;1.17;;;1.00;;
12838;SDS011;6486;51.034;5.262;2023-04-03T03:06:13;2.50;;;1.83;;
12838;SDS011;6486;51.034;5.262;2023-04-03T03:08:40;1.47;;;1.10;;
12838;SDS011;6486;51.034;5.262;2023-04-03T03:11:06;2.07;;;0.73;;
12838;SDS011;6486;51.034;5.262;2023-04-03T03:13:32;3.23;;;1.47;;
12838;SDS011;6486;51.034;5.262;2023-04-03T03:15:58;4.00;;;2.13;;
12838;SDS011;6486;51.034;5.262;2023-04-03T03:18:24;2.57;;;0.97;;
12838;SDS011;6486;51.034;5.262;2023-04-03T03:20:53;1.20;;;1.10;;
12838;SDS011;6486;51.034;5.262;2023-04-03T03:23:22;1.90;;;1.67;;
12838;SDS011;6486;51.034;5.262;2023-04-03T03:25:49;1.43;;;1.17;;
12838;SDS011;6486;51.034;5.262;2023-04-03T03:28:23;1.40;;;1.30;;
12838;SDS011;6486;51.034;5.262;2023-04-03T03:30:49;2.40;;;1.60;;
12838;SDS011;6486;51.034;5.262;2023-04-03T03:33:15;2.60;;;1.50;;
12838;SDS011;6486;51.034;5.262;2023-04-03T03:35:42;2.90;;;1.50;;
12838;SDS011;6486;51.034;5.262;2023-04-03T03:38:08;1.27;;;1.13;;
12838;SDS011;6486;51.034;5.262;2023-04-03T03:40:33;4.53;;;1.60;;
12838;SDS011;6486;51.034;5.262;2023-04-03T03:42:59;2.47;;;1.70;;
12838;SDS011;6486;51.034;5.262;2023-04-03T03:45:25;2.97;;;1.53;;
12838;SDS011;6486;51.034;5.262;2023-04-03T03:47:50;0.93;;;0.83;;
12838;SDS011;6486;51.034;5.262;2023-04-03T03:50:16;1.73;;;1.47;;
12838;SDS011;6486;51.034;5.262;2023-04-03T03:52:41;3.73;;;1.70;;
12838;SDS011;6486;51.034;5.262;2023-04-03T03:55:07;0.97;;;0.90;;
12838;SDS011;6486;51.034;5.262;2023-04-03T03:57:33;1.60;;;1.47;;
12838;SDS011;6486;51.034;5.262;2023-04-03T03:59:58;2.93;;;2.07;;
12838;SDS011;6486;51.034;5.262;2023-04-03T04:02:24;1.83;;;1.20;;
12838;SDS011;6486;51.034;5.262;2023-04-03T04:04:49;1.63;;;1.33;;
12838;SDS011;6486;51.034;5.262;2023-04-03T04:07:15;1.67;;;1.17;;
12838;SDS011;6486;51.034;5.262;2023-04-03T04:09:41;2.57;;;1.73;;
12838;SDS011;6486;51.034;5.262;2023-04-03T04:12:06;7.63;;;1.37;;
12838;SDS011;6486;51.034;5.262;2023-04-03T04:14:32;5.60;;;1.67;;
12838;SDS011;6486;51.034;5.262;2023-04-03T04:16:57;1.53;;;1.33;;
12838;SDS011;6486;51.034;5.262;2023-04-03T04:19:23;2.30;;;1.27;;
12838;SDS011;6486;51.034;5.262;2023-04-03T04:21:49;1.53;;;1.23;;
12838;SDS011;6486;51.034;5.262;2023-04-03T04:24:15;2.03;;;1.27;;
12838;SDS011;6486;51.034;5.262;2023-04-03T04:26:41;1.57;;;1.47;;
12838;SDS011;6486;51.034;5.262;2023-04-03T04:29:08;2.60;;;1.60;;
12838;SDS011;6486;51.034;5.262;2023-04-03T04:31:35;1.93;;;1.60;;
12838;SDS011;6486;51.034;5.262;2023-04-03T04:34:00;2.33;;;2.13;;
12838;SDS011;6486;51.034;5.262;2023-04-03T04:36:26;5.27;;;2.47;;
12838;SDS011;6486;51.034;5.262;2023-04-03T04:38:52;2.27;;;2.07;;
12838;SDS011;6486;51.034;5.262;2023-04-03T04:41:19;3.10;;;1.73;;
12838;SDS011;6486;51.034;5.262;2023-04-03T04:43:48;3.57;;;1.60;;
12838;SDS011;6486;51.034;5.262;2023-04-03T04:46:14;1.63;;;1.10;;
12838;SDS011;6486;51.034;5.262;2023-04-03T04:48:40;1.70;;;1.60;;
12838;SDS011;6486;51.034;5.262;2023-04-03T04:51:06;2.90;;;2.40;;
12838;SDS011;6486;51.034;5.262;2023-04-03T04:53:31;2.13;;;1.93;;
12838;SDS011;6486;51.034;5.262;2023-04-03T04:55:57;2.20;;;1.97;;
12838;SDS011;6486;51.034;5.262;2023-04-03T04:58:23;3.63;;;2.17;;
12838;SDS011;6486;51.034;5.262;2023-04-03T05:00:49;1.83;;;1.73;;
12838;SDS011;6486;51.034;5.262;2023-04-03T05:03:15;2.63;;;1.90;;
12838;SDS011;6486;51.034;5.262;2023-04-03T05:05:40;2.80;;;2.27;;
12838;SDS011;6486;51.034;5.262;2023-04-03T05:08:06;3.83;;;1.90;;
12838;SDS011;6486;51.034;5.262;2023-04-03T05:10:33;1.40;;;1.30;;
12838;SDS011;6486;51.034;5.262;2023-04-03T05:12:59;3.80;;;1.43;;
12838;SDS011;6486;51.034;5.262;2023-04-03T05:15:24;3.37;;;1.87;;
12838;SDS011;6486;51.034;5.262;2023-04-03T05:17:50;2.03;;;1.93;;
12838;SDS011;6486;51.034;5.262;2023-04-03T05:20:16;2.90;;;1.67;;
12838;SDS011;6486;51.034;5.262;2023-04-03T05:22:42;2.33;;;1.97;;
12838;SDS011;6486;51.034;5.262;2023-04-03T05:25:08;3.90;;;2.03;;
12838;SDS011;6486;51.034;5.262;2023-04-03T05:27:35;4.37;;;2.43;;
12838;SDS011;6486;51.034;5.262;2023-04-03T05:30:01;5.23;;;2.33;;
12838;SDS011;6486;51.034;5.262;2023-04-03T05:32:27;2.00;;;1.90;;
12838;SDS011;6486;51.034;5.262;2023-04-03T05:34:53;2.03;;;1.87;;
12838;SDS011;6486;51.034;5.262;2023-04-03T05:37:19;2.07;;;1.77;;
12838;SDS011;6486;51.034;5.262;2023-04-03T05:39:45;3.13;;;2.30;;
12838;SDS011;6486;51.034;5.262;2023-04-03T05:42:11;3.20;;;2.00;;
12838;SDS011;6486;51.034;5.262;2023-04-03T05:44:37;2.50;;;2.20;;
12838;SDS011;6486;51.034;5.262;2023-04-03T05:47:03;2.80;;;2.17;;
12838;SDS011;6486;51.034;5.262;2023-04-03T05:49:31;6.00;;;2.53;;
12838;SDS011;6486;51.034;5.262;2023-04-03T05:51:57;3.97;;;2.13;;
12838;SDS011;6486;51.034;5.262;2023-04-03T05:54:26;3.90;;;2.70;;
12838;SDS011;6486;51.034;5.262;2023-04-03T05:56:54;3.77;;;1.97;;
12838;SDS011;6486;51.034;5.262;2023-04-03T05:59:20;2.17;;;1.97;;
12838;SDS011;6486;51.034;5.262;2023-04-03T06:01:46;3.97;;;2.10;;
12838;SDS011;6486;51.034;5.262;2023-04-03T06:04:13;4.53;;;2.83;;
12838;SDS011;6486;51.034;5.262;2023-04-03T06:06:46;3.93;;;2.07;;
12838;SDS011;6486;51.034;5.262;2023-04-03T06:09:17;2.40;;;1.73;;
12838;SDS011;6486;51.034;5.262;2023-04-03T06:11:43;2.40;;;1.63;;
12838;SDS011;6486;51.034;5.262;2023-04-03T06:14:09;2.83;;;2.57;;
12838;SDS011;6486;51.034;5.262;2023-04-03T06:16:35;2.33;;;1.40;;
12838;SDS011;6486;51.034;5.262;2023-04-03T06:19:02;1.63;;;1.30;;
12838;SDS011;6486;51.034;5.262;2023-04-03T06:21:29;1.73;;;1.63;;
12838;SDS011;6486;51.034;5.262;2023-04-03T06:23:55;12.77;;;1.43;;
12838;SDS011;6486;51.034;5.262;2023-04-03T06:26:20;2.03;;;1.40;;
12838;SDS011;6486;51.034;5.262;2023-04-03T06:28:47;1.93;;;1.67;;
12838;SDS011;6486;51.034;5.262;2023-04-03T06:31:13;1.93;;;1.50;;
12838;SDS011;6486;51.034;5.262;2023-04-03T06:33:38;1.33;;;1.23;;
12838;SDS011;6486;51.034;5.262;2023-04-03T06:36:04;3.93;;;1.93;;
12838;SDS011;6486;51.034;5.262;2023-04-03T06:38:31;3.27;;;1.80;;
12838;SDS011;6486;51.034;5.262;2023-04-03T06:40:58;1.67;;;1.20;;
12838;SDS011;6486;51.034;5.262;2023-04-03T06:43:23;1.30;;;1.20;;
12838;SDS011;6486;51.034;5.262;2023-04-03T06:45:49;2.30;;;1.70;;
12838;SDS011;6486;51.034;5.262;2023-04-03T06:48:15;3.80;;;1.73;;
12838;SDS011;6486;51.034;5.262;2023-04-03T06:50:41;2.40;;;1.37;;
12838;SDS011;6486;51.034;5.262;2023-04-03T06:53:07;1.53;;;1.43;;
12838;SDS011;6486;51.034;5.262;2023-04-03T06:55:33;1.20;;;0.97;;
12838;SDS011;6486;51.034;5.262;2023-04-03T06:57:59;2.37;;;1.03;;
12838;SDS011;6486;51.034;5.262;2023-04-03T07:00:25;1.90;;;1.80;;
12838;SDS011;6486;51.034;5.262;2023-04-03T07:02:51;1.37;;;1.27;;
12838;SDS011;6486;51.034;5.262;2023-04-03T07:05:16;3.17;;;2.30;;
12838;SDS011;6486;51.034;5.262;2023-04-03T07:07:43;1.57;;;1.47;;
12838;SDS011;6486;51.034;5.262;2023-04-03T07:10:08;4.93;;;1.40;;
12838;SDS011;6486;51.034;5.262;2023-04-03T07:12:35;0.83;;;0.83;;
12838;SDS011;6486;51.034;5.262;2023-04-03T07:15:01;1.37;;;1.20;;
12838;SDS011;6486;51.034;5.262;2023-04-03T07:17:26;2.43;;;1.23;;
12838;SDS011;6486;51.034;5.262;2023-04-03T07:19:52;2.77;;;1.17;;
12838;SDS011;6486;51.034;5.262;2023-04-03T07:22:17;1.57;;;0.97;;
12838;SDS011;6486;51.034;5.262;2023-04-03T07:24:43;2.13;;;1.37;;
12838;SDS011;6486;51.034;5.262;2023-04-03T07:27:09;2.40;;;1.53;;
12838;SDS011;6486;51.034;5.262;2023-04-03T07:29:35;1.53;;;0.90;;
12838;SDS011;6486;51.034;5.262;2023-04-03T07:32:01;1.30;;;0.83;;
12838;SDS011;6486;51.034;5.262;2023-04-03T07:34:27;1.70;;;0.83;;
12838;SDS011;6486;51.034;5.262;2023-04-03T07:36:53;1.40;;;0.97;;
12838;SDS011;6486;51.034;5.262;2023-04-03T07:39:18;1.37;;;1.20;;
12838;SDS011;6486;51.034;5.262;2023-04-03T07:41:44;30.47;;;1.90;;
12838;SDS011;6486;51.034;5.262;2023-04-03T07:44:10;0.70;;;0.70;;
12838;SDS011;6486;51.034;5.262;2023-04-03T07:46:36;1.53;;;1.10;;
12838;SDS011;6486;51.034;5.262;2023-04-03T07:49:02;1.43;;;1.37;;
12838;SDS011;6486;51.034;5.262;2023-04-03T07:51:28;1.13;;;1.13;;
12838;SDS011;6486;51.034;5.262;2023-04-03T07:53:54;2.10;;;1.03;;
12838;SDS011;6486;51.034;5.262;2023-04-03T07:56:20;0.70;;;0.63;;
12838;SDS011;6486;51.034;5.262;2023-04-03T07:58:46;0.93;;;0.60;;
12838;SDS011;6486;51.034;5.262;2023-04-03T08:01:12;1.40;;;1.13;;
12838;SDS011;6486;51.034;5.262;2023-04-03T08:03:38;0.87;;;0.80;;
12838;SDS011;6486;51.034;5.262;2023-04-03T08:06:04;0.73;;;0.73;;
12838;SDS011;6486;51.034;5.262;2023-04-03T08:08:31;1.30;;;1.20;;
12838;SDS011;6486;51.034;5.262;2023-04-03T08:10:58;1.37;;;1.10;;
12838;SDS011;6486;51.034;5.262;2023-04-03T08:13:24;0.50;;;0.50;;
12838;SDS011;6486;51.034;5.262;2023-04-03T08:15:50;0.50;;;0.50;;
12838;SDS011;6486;51.034;5.262;2023-04-03T08:18:16;23.17;;;0.97;;
12838;SDS011;6486;51.034;5.262;2023-04-03T08:20:43;1.33;;;1.23;;
12838;SDS011;6486;51.034;5.262;2023-04-03T08:23:09;2.93;;;1.73;;
12838;SDS011;6486;51.034;5.262;2023-04-03T08:25:39;1.17;;;1.07;;
12838;SDS011;6486;51.034;5.262;2023-04-03T08:28:05;0.53;;;0.53;;
12838;SDS011;6486;51.034;5.262;2023-04-03T08:30:32;4.33;;;0.70;;
12838;SDS011;6486;51.034;5.262;2023-04-03T08:33:00;0.80;;;0.80;;
12838;SDS011;6486;51.034;5.262;2023-04-03T08:35:27;3.90;;;0.97;;
12838;SDS011;6486;51.034;5.262;2023-04-03T08:37:52;0.70;;;0.67;;
12838;SDS011;6486;51.034;5.262;2023-04-03T08:40:19;1.30;;;1.20;;
12838;SDS011;6486;51.034;5.262;2023-04-03T08:48:06;2.47;;;0.77;;
12838;SDS011;6486;51.034;5.262;2023-04-03T08:50:41;1.10;;;0.97;;
12838;SDS011;6486;51.034;5.262;2023-04-03T08:53:23;0.97;;;0.90;;
12838;SDS011;6486;51.034;5.262;2023-04-03T08:55:53;1.93;;;0.37;;
12838;SDS011;6486;51.034;5.262;2023-04-03T08:58:29;0.97;;;0.87;;
12838;SDS011;6486;51.034;5.262;2023-04-03T09:03:42;0.40;;;0.40;;
12838;SDS011;6486;51.034;5.262;2023-04-03T09:06:11;3.97;;;0.80;;
12838;SDS011;6486;51.034;5.262;2023-04-03T09:16:31;1.53;;;1.43;;
12838;SDS011;6486;51.034;5.262;2023-04-03T09:19:11;0.40;;;0.40;;
12838;SDS011;6486;51.034;5.262;2023-04-03T09:21:46;0.77;;;0.53;;
12838;SDS011;6486;51.034;5.262;2023-04-03T09:24:13;0.63;;;0.63;;
12838;SDS011;6486;51.034;5.262;2023-04-03T09:26:51;0.30;;;0.30;;
12838;SDS011;6486;51.034;5.262;2023-04-03T09:29:19;0.47;;;0.40;;
12838;SDS011;6486;51.034;5.262;2023-04-03T09:31:52;0.30;;;0.30;;
12838;SDS011;6486;51.034;5.262;2023-04-03T09:34:25;1.20;;;0.57;;
12838;SDS011;6486;51.034;5.262;2023-04-03T09:36:55;0.40;;;0.40;;
12838;SDS011;6486;51.034;5.262;2023-04-03T09:39:24;0.50;;;0.30;;
12838;SDS011;6486;51.034;5.262;2023-04-03T09:44:24;0.80;;;0.57;;
12838;SDS011;6486;51.034;5.262;2023-04-03T09:46:51;1.03;;;0.73;;
12838;SDS011;6486;51.034;5.262;2023-04-03T09:49:17;0.50;;;0.50;;
12838;SDS011;6486;51.034;5.262;2023-04-03T09:51:44;0.97;;;0.87;;
12838;SDS011;6486;51.034;5.262;2023-04-03T09:56:54;0.40;;;0.40;;
12838;SDS011;6486;51.034;5.262;2023-04-03T09:59:22;0.20;;;0.20;;
12838;SDS011;6486;51.034;5.262;2023-04-03T10:01:59;0.17;;;0.17;;
12838;SDS011;6486;51.034;5.262;2023-04-03T10:04:36;0.37;;;0.30;;
12838;SDS011;6486;51.034;5.262;2023-04-03T10:07:04;0.10;;;0.10;;
12838;SDS011;6486;51.034;5.262;2023-04-03T10:10:20;1.07;;;0.83;;
12838;SDS011;6486;51.034;5.262;2023-04-03T10:13:03;2.27;;;1.17;;
12838;SDS011;6486;51.034;5.262;2023-04-03T10:15:45;0.43;;;0.43;;
12838;SDS011;6486;51.034;5.262;2023-04-03T10:24:20;0.47;;;0.47;;
12838;SDS011;6486;51.034;5.262;2023-04-03T10:29:38;2.23;;;0.50;;
12838;SDS011;6486;51.034;5.262;2023-04-03T10:38:00;0.10;;;0.10;;
12838;SDS011;6486;51.034;5.262;2023-04-03T10:41:03;1.10;;;0.33;;
12838;SDS011;6486;51.034;5.262;2023-04-03T10:49:10;0.20;;;0.20;;
12838;SDS011;6486;51.034;5.262;2023-04-03T10:52:00;0.47;;;0.30;;
12838;SDS011;6486;51.034;5.262;2023-04-03T10:54:49;0.23;;;0.10;;
12838;SDS011;6486;51.034;5.262;2023-04-03T10:57:27;1.60;;;0.40;;
12838;SDS011;6486;51.034;5.262;2023-04-03T10:59:58;1.50;;;0.60;;
12838;SDS011;6486;51.034;5.262;2023-04-03T11:05:04;0.30;;;0.30;;
12838;SDS011;6486;51.034;5.262;2023-04-03T11:07:39;0.63;;;0.63;;
12838;SDS011;6486;51.034;5.262;2023-04-03T11:10:18;0.20;;;0.20;;
12838;SDS011;6486;51.034;5.262;2023-04-03T11:12:59;0.30;;;0.30;;
12838;SDS011;6486;51.034;5.262;2023-04-03T11:15:31;0.40;;;0.40;;
12838;SDS011;6486;51.034;5.262;2023-04-03T11:18:00;0.40;;;0.30;;
12838;SDS011;6486;51.034;5.262;2023-04-03T11:20:31;0.17;;;0.17;;
12838;SDS011;6486;51.034;5.262;2023-04-03T11:25:50;0.30;;;0.30;;
12838;SDS011;6486;51.034;5.262;2023-04-03T11:28:18;0.30;;;0.30;;
12838;SDS011;6486;51.034;5.262;2023-04-03T11:35:49;2.33;;;0.47;;
12838;SDS011;6486;51.034;5.262;2023-04-03T11:38:22;0.30;;;0.30;;
12838;SDS011;6486;51.034;5.262;2023-04-03T11:40:52;1.60;;;0.73;;
12838;SDS011;6486;51.034;5.262;2023-04-03T11:43:23;0.77;;;0.67;;
12838;SDS011;6486;51.034;5.262;2023-04-03T11:45:55;0.40;;;0.27;;
12838;SDS011;6486;51.034;5.262;2023-04-03T11:50:57;1.93;;;1.10;;
12838;SDS011;6486;51.034;5.262;2023-04-03T11:53:29;0.93;;;0.60;;
12838;SDS011;6486;51.034;5.262;2023-04-03T11:56:40;1.57;;;1.00;;
12838;SDS011;6486;51.034;5.262;2023-04-03T12:01:43;0.90;;;0.67;;
12838;SDS011;6486;51.034;5.262;2023-04-03T12:04:10;1.03;;;0.93;;
12838;SDS011;6486;51.034;5.262;2023-04-03T12:09:21;0.20;;;0.20;;
12838;SDS011;6486;51.034;5.262;2023-04-03T12:11:56;0.40;;;0.40;;
12838;SDS011;6486;51.034;5.262;2023-04-03T12:14:25;0.50;;;0.30;;
12838;SDS011;6486;51.034;5.262;2023-04-03T12:16:55;0.20;;;0.20;;
12838;SDS011;6486;51.034;5.262;2023-04-03T12:19:38;0.27;;;0.27;;
12838;SDS011;6486;51.034;5.262;2023-04-03T12:22:13;0.67;;;0.30;;
12838;SDS011;6486;51.034;5.262;2023-04-03T12:24:41;0.77;;;0.77;;
12838;SDS011;6486;51.034;5.262;2023-04-03T12:27:21;0.10;;;0.10;;
12838;SDS011;6486;51.034;5.262;2023-04-03T12:35:21;0.60;;;0.53;;
12838;SDS011;6486;51.034;5.262;2023-04-03T12:51:17;0.13;;;0.13;;
12838;SDS011;6486;51.034;5.262;2023-04-03T12:53:46;0.10;;;0.10;;
12838;SDS011;6486;51.034;5.262;2023-04-03T12:56:27;0.30;;;0.20;;
12838;SDS011;6486;51.034;5.262;2023-04-03T12:58:55;2.30;;;0.60;;
12838;SDS011;6486;51.034;5.262;2023-04-03T13:01:37;0.90;;;0.53;;
12838;SDS011;6486;51.034;5.262;2023-04-03T13:04:03;0.83;;;0.47;;
12838;SDS011;6486;51.034;5.262;2023-04-03T13:06:47;0.20;;;0.20;;
12838;SDS011;6486;51.034;5.262;2023-04-03T13:09:24;0.47;;;0.47;;
12838;SDS011;6486;51.034;5.262;2023-04-03T13:14:51;0.40;;;0.37;;
12838;SDS011;6486;51.034;5.262;2023-04-03T13:17:18;1.80;;;0.73;;
12838;SDS011;6486;51.034;5.262;2023-04-03T13:19:44;0.23;;;0.23;;
12838;SDS011;6486;51.034;5.262;2023-04-03T13:24:42;0.10;;;0.10;;
12838;SDS011;6486;51.034;5.262;2023-04-03T13:27:12;1.07;;;0.37;;
12838;SDS011;6486;51.034;5.262;2023-04-03T13:29:38;1.50;;;1.17;;
12838;SDS011;6486;51.034;5.262;2023-04-03T13:32:05;0.20;;;0.20;;
12838;SDS011;6486;51.034;5.262;2023-04-03T13:34:36;1.60;;;0.27;;
12838;SDS011;6486;51.034;5.262;2023-04-03T13:37:05;0.10;;;0.10;;
12838;SDS011;6486;51.034;5.262;2023-04-03T13:39:37;1.07;;;0.50;;
12838;SDS011;6486;51.034;5.262;2023-04-03T13:42:20;0.63;;;0.33;;
12838;SDS011;6486;51.034;5.262;2023-04-03T13:44:48;0.50;;;0.50;;
12838;SDS011;6486;51.034;5.262;2023-04-03T13:47:36;0.33;;;0.20;;
12838;SDS011;6486;51.034;5.262;2023-04-03T13:53:02;1.70;;;0.50;;
12838;SDS011;6486;51.034;5.262;2023-04-03T13:55:37;0.20;;;0.20;;
12838;SDS011;6486;51.034;5.262;2023-04-03T13:58:23;0.30;;;0.30;;
12838;SDS011;6486;51.034;5.262;2023-04-03T14:03:33;0.83;;;0.27;;
12838;SDS011;6486;51.034;5.262;2023-04-03T14:06:06;0.60;;;0.40;;
12838;SDS011;6486;51.034;5.262;2023-04-03T14:08:35;0.50;;;0.50;;
12838;SDS011;6486;51.034;5.262;2023-04-03T14:11:01;0.37;;;0.37;;
12838;SDS011;6486;51.034;5.262;2023-04-03T14:13:29;0.27;;;0.20;;
12838;SDS011;6486;51.034;5.262;2023-04-03T14:15:55;1.33;;;0.50;;
12838;SDS011;6486;51.034;5.262;2023-04-03T14:18:21;3.27;;;1.30;;
12838;SDS011;6486;51.034;5.262;2023-04-03T14:20:47;0.60;;;0.60;;
12838;SDS011;6486;51.034;5.262;2023-04-03T14:23:13;0.40;;;0.40;;
12838;SDS011;6486;51.034;5.262;2023-04-03T14:25:39;1.37;;;0.63;;
12838;SDS011;6486;51.034;5.262;2023-04-03T14:28:16;1.80;;;0.97;;
12838;SDS011;6486;51.034;5.262;2023-04-03T14:30:44;2.70;;;1.23;;
12838;SDS011;6486;51.034;5.262;2023-04-03T14:33:14;0.47;;;0.47;;
12838;SDS011;6486;51.034;5.262;2023-04-03T14:35:42;0.40;;;0.40;;
12838;SDS011;6486;51.034;5.262;2023-04-03T14:38:20;0.30;;;0.30;;
12838;SDS011;6486;51.034;5.262;2023-04-03T14:40:49;0.57;;;0.57;;
12838;SDS011;6486;51.034;5.262;2023-04-03T14:43:15;0.83;;;0.50;;
12838;SDS011;6486;51.034;5.262;2023-04-03T14:45:42;0.40;;;0.20;;
12838;SDS011;6486;51.034;5.262;2023-04-03T14:48:10;0.30;;;0.30;;
12838;SDS011;6486;51.034;5.262;2023-04-03T14:50:42;0.47;;;0.20;;
12838;SDS011;6486;51.034;5.262;2023-04-03T14:53:10;0.40;;;0.40;;
12838;SDS011;6486;51.034;5.262;2023-04-03T14:55:37;0.40;;;0.40;;
12838;SDS011;6486;51.034;5.262;2023-04-03T14:58:03;0.60;;;0.40;;
12838;SDS011;6486;51.034;5.262;2023-04-03T15:00:28;0.47;;;0.47;;
12838;SDS011;6486;51.034;5.262;2023-04-03T15:02:54;0.60;;;0.60;;
12838;SDS011;6486;51.034;5.262;2023-04-03T15:05:20;0.23;;;0.23;;
12838;SDS011;6486;51.034;5.262;2023-04-03T15:07:57;0.27;;;0.23;;
12838;SDS011;6486;51.034;5.262;2023-04-03T15:10:26;0.20;;;0.20;;
12838;SDS011;6486;51.034;5.262;2023-04-03T15:12:54;1.20;;;0.63;;
12838;SDS011;6486;51.034;5.262;2023-04-03T15:15:21;0.43;;;0.37;;
12838;SDS011;6486;51.034;5.262;2023-04-03T15:17:52;0.60;;;0.50;;
12838;SDS011;6486;51.034;5.262;2023-04-03T15:20:20;0.23;;;0.23;;
12838;SDS011;6486;51.034;5.262;2023-04-03T15:22:48;1.03;;;0.50;;
12838;SDS011;6486;51.034;5.262;2023-04-03T15:25:15;0.57;;;0.57;;
12838;SDS011;6486;51.034;5.262;2023-04-03T15:27:40;0.87;;;0.50;;
12838;SDS011;6486;51.034;5.262;2023-04-03T15:30:07;0.10;;;0.10;;
12838;SDS011;6486;51.034;5.262;2023-04-03T15:32:38;2.20;;;0.30;;
12838;SDS011;6486;51.034;5.262;2023-04-03T15:35:04;0.13;;;0.13;;
12838;SDS011;6486;51.034;5.262;2023-04-03T15:37:30;1.03;;;0.80;;
12838;SDS011;6486;51.034;5.262;2023-04-03T15:39:56;0.60;;;0.17;;
12838;SDS011;6486;51.034;5.262;2023-04-03T15:42:22;1.47;;;1.03;;
12838;SDS011;6486;51.034;5.262;2023-04-03T15:44:47;0.20;;;0.20;;
12838;SDS011;6486;51.034;5.262;2023-04-03T15:47:13;0.93;;;0.23;;
12838;SDS011;6486;51.034;5.262;2023-04-03T15:49:39;3.97;;;0.70;;
12838;SDS011;6486;51.034;5.262;2023-04-03T15:52:04;1.10;;;0.70;;
12838;SDS011;6486;51.034;5.262;2023-04-03T15:54:30;0.43;;;0.30;;
12838;SDS011;6486;51.034;5.262;2023-04-03T15:56:56;0.60;;;0.20;;
12838;SDS011;6486;51.034;5.262;2023-04-03T15:59:22;3.83;;;0.50;;
12838;SDS011;6486;51.034;5.262;2023-04-03T16:01:48;0.70;;;0.50;;
12838;SDS011;6486;51.034;5.262;2023-04-03T16:04:15;4.13;;;0.50;;
12838;SDS011;6486;51.034;5.262;2023-04-03T16:06:41;0.73;;;0.53;;
12838;SDS011;6486;51.034;5.262;2023-04-03T16:09:07;0.60;;;0.20;;
12838;SDS011;6486;51.034;5.262;2023-04-03T16:11:33;0.13;;;0.13;;
12838;SDS011;6486;51.034;5.262;2023-04-03T16:14:00;0.40;;;0.40;;
12838;SDS011;6486;51.034;5.262;2023-04-03T16:16:27;0.37;;;0.33;;
12838;SDS011;6486;51.034;5.262;2023-04-03T16:18:53;1.13;;;0.57;;
12838;SDS011;6486;51.034;5.262;2023-04-03T16:21:20;0.35;;;0.20;;
12838;SDS011;6486;51.034;5.262;2023-04-03T16:23:46;1.52;;;0.22;;
12838;SDS011;6486;51.034;5.262;2023-04-03T16:26:12;2.33;;;0.68;;
12838;SDS011;6486;51.034;5.262;2023-04-03T16:28:38;0.40;;;0.40;;
12838;SDS011;6486;51.034;5.262;2023-04-03T16:31:04;0.65;;;0.32;;
12838;SDS011;6486;51.034;5.262;2023-04-03T16:33:30;1.10;;;0.40;;
12838;SDS011;6486;51.034;5.262;2023-04-03T16:35:56;0.33;;;0.33;;
12838;SDS011;6486;51.034;5.262;2023-04-03T16:38:22;0.40;;;0.40;;
12838;SDS011;6486;51.034;5.262;2023-04-03T16:40:47;0.20;;;0.20;;
12838;SDS011;6486;51.034;5.262;2023-04-03T16:43:14;0.20;;;0.20;;
12838;SDS011;6486;51.034;5.262;2023-04-03T16:45:40;2.20;;;1.03;;